createdAt,value
2018-09-25T00:00:02.775Z,102327.00
2018-09-25T00:02:36.424Z,102335.30
2018-09-25T00:05:11.387Z,102335.18
2018-09-25T00:07:45.170Z,102336.95
2018-09-25T00:10:19.034Z,102336.81
2018-09-25T00:12:52.672Z,102345.82
2018-09-25T00:15:26.401Z,102344.55
2018-09-25T00:18:00.113Z,102342.80
2018-09-25T00:20:33.807Z,102344.08
2018-09-25T00:23:07.496Z,102344.50
2018-09-25T00:25:41.818Z,102346.56
2018-09-25T00:28:15.717Z,102345.98
2018-09-25T00:30:49.433Z,102351.09
2018-09-25T00:33:23.151Z,102350.70
2018-09-25T00:35:56.950Z,102349.94
2018-09-25T00:38:30.452Z,102355.23
2018-09-25T00:41:04.266Z,102345.09
2018-09-25T00:43:38.092Z,102353.55
2018-09-25T00:46:12.686Z,102352.28
2018-09-25T00:48:46.425Z,102352.19
2018-09-25T00:51:20.201Z,102347.11
2018-09-25T00:53:53.982Z,102348.67
2018-09-25T00:56:28.307Z,102355.47
2018-09-25T00:59:02.594Z,102360.35
2018-09-25T01:01:36.238Z,102361.89
2018-09-25T01:04:10.091Z,102358.99
2018-09-25T01:06:43.889Z,102365.29
2018-09-25T01:09:17.511Z,102361.24
2018-09-25T01:11:51.295Z,102360.98
2018-09-25T01:14:25.064Z,102358.94
2018-09-25T01:16:58.764Z,102362.30
2018-09-25T01:19:32.363Z,102368.19
2018-09-25T01:22:06.121Z,102371.55
2018-09-25T01:24:40.067Z,102371.84
2018-09-25T01:27:14.389Z,102374.89
2018-09-25T01:29:48.218Z,102377.34
2018-09-25T01:32:21.937Z,102371.41
2018-09-25T01:34:55.723Z,102377.70
2018-09-25T01:37:29.337Z,102379.77
2018-09-25T01:40:03.266Z,102387.45
2018-09-25T01:42:36.946Z,102385.97
2018-09-25T01:45:10.754Z,102386.52
2018-09-25T01:47:44.478Z,102394.02
2018-09-25T01:50:18.298Z,102391.95
2018-09-25T01:52:52.264Z,102399.57
2018-09-25T01:55:26.732Z,102401.28
2018-09-25T01:58:01.314Z,102403.17
2018-09-25T02:00:35.056Z,102403.67
2018-09-25T02:03:08.849Z,102395.08
2018-09-25T02:05:42.784Z,102401.75
2018-09-25T02:08:16.519Z,102402.70
2018-09-25T02:10:50.245Z,102404.89
2018-09-25T02:13:24.024Z,102405.71
2018-09-25T02:15:57.664Z,102410.20
2018-09-25T02:18:31.472Z,102407.53
2018-09-25T02:21:05.335Z,102411.31
2018-09-25T02:23:38.880Z,102405.31
2018-09-25T02:26:12.787Z,102413.79
2018-09-25T02:28:46.714Z,102415.83
2018-09-25T02:31:20.500Z,102415.50
2018-09-25T02:33:54.250Z,102420.78
2018-09-25T02:36:28.002Z,102426.94
2018-09-25T02:39:01.745Z,102426.91
2018-09-25T02:41:35.403Z,102423.03
2018-09-25T02:44:09.329Z,102417.13
2018-09-25T02:46:43.562Z,102420.41
2018-09-25T02:49:17.552Z,102423.86
2018-09-25T02:51:51.802Z,102424.75
2018-09-25T02:54:25.480Z,102428.38
2018-09-25T02:56:59.768Z,102427.11
2018-09-25T02:59:34.293Z,102430.70
2018-09-25T03:02:07.943Z,102427.39
2018-09-25T03:04:41.776Z,102426.22
2018-09-25T03:07:15.506Z,102435.64
2018-09-25T03:09:49.328Z,102432.34
2018-09-25T03:12:23.041Z,102430.22
2018-09-25T03:14:56.783Z,102431.92
2018-09-25T03:17:30.351Z,102438.38
2018-09-25T03:23:01.128Z,102437.16
2018-09-25T03:25:34.809Z,102436.87
2018-09-25T03:28:09.063Z,102449.33
2018-09-25T03:30:42.843Z,102443.42
2018-09-25T03:33:16.539Z,102446.81
2018-09-25T03:35:50.438Z,102447.64
2018-09-25T03:38:24.093Z,102454.00
2018-09-25T03:40:57.840Z,102454.31
2018-09-25T03:43:31.947Z,102457.81
2018-09-25T03:46:05.581Z,102457.66
2018-09-25T03:48:39.419Z,102459.02
2018-09-25T03:51:13.642Z,102459.05
2018-09-25T03:53:48.108Z,102465.02
2018-09-25T03:56:22.358Z,102470.97
2018-09-25T03:58:56.024Z,102466.93
2018-09-25T04:01:29.834Z,102468.27
2018-09-25T04:04:03.501Z,102469.05
2018-09-25T04:06:37.317Z,102470.11
2018-09-25T04:09:12.683Z,102477.31
2018-09-25T04:11:46.538Z,102482.62
2018-09-25T04:14:20.299Z,102482.39
2018-09-25T04:16:54.016Z,102484.49
2018-09-25T04:19:27.711Z,102486.78
2018-09-25T04:22:01.884Z,102493.99
2018-09-25T04:24:35.725Z,102497.42
2018-09-25T04:27:09.381Z,102503.97
2018-09-25T04:29:43.748Z,102501.42
2018-09-25T04:32:17.485Z,102500.72
2018-09-25T04:34:51.422Z,102511.37
2018-09-25T04:37:25.073Z,102513.56
2018-09-25T04:39:59.435Z,102518.73
2018-09-25T04:42:33.295Z,102522.27
2018-09-25T04:45:07.005Z,102518.86
2018-09-25T04:47:40.749Z,102523.05
2018-09-25T04:50:14.533Z,102521.50
2018-09-25T04:52:48.249Z,102519.30
2018-09-25T04:55:22.014Z,102519.21
2018-09-25T04:57:55.629Z,102518.95
2018-09-25T05:00:29.340Z,102521.63
2018-09-25T05:03:02.967Z,102521.20
2018-09-25T05:05:36.777Z,102523.27
2018-09-25T05:08:11.021Z,102528.90
2018-09-25T05:10:44.885Z,102530.20
2018-09-25T05:13:18.627Z,102538.81
2018-09-25T05:15:52.221Z,102537.89
2018-09-25T05:18:26.195Z,102546.09
2018-09-25T05:20:59.915Z,102536.01
2018-09-25T05:23:33.717Z,102538.55
2018-09-25T05:26:07.603Z,102548.63
2018-09-25T05:28:41.870Z,102548.98
2018-09-25T05:31:15.543Z,102545.67
2018-09-25T05:33:49.622Z,102548.98
2018-09-25T05:36:23.374Z,102548.92
2018-09-25T05:38:57.025Z,102559.95
2018-09-25T05:41:30.557Z,102557.41
2018-09-25T05:44:04.343Z,102563.38
2018-09-25T05:46:37.981Z,102563.73
2018-09-25T05:49:11.867Z,102559.16
2018-09-25T05:51:45.781Z,102561.19
2018-09-25T05:54:19.440Z,102570.59
2018-09-25T05:56:53.179Z,102577.66
2018-09-25T05:59:26.862Z,102575.78
2018-09-25T06:02:01.175Z,102584.33
2018-09-25T06:04:34.778Z,102574.34
2018-09-25T06:07:08.517Z,102575.78
2018-09-25T06:09:42.402Z,102574.28
2018-09-25T06:12:16.053Z,102581.15
2018-09-25T06:14:49.842Z,102581.20
2018-09-25T06:17:23.584Z,102580.03
2018-09-25T06:19:57.330Z,102583.36
2018-09-25T06:22:30.944Z,102584.52
2018-09-25T06:25:04.711Z,102586.22
2018-09-25T06:27:38.955Z,102592.44
2018-09-25T06:30:13.019Z,102601.70
2018-09-25T06:32:46.632Z,102602.82
2018-09-25T06:35:20.417Z,102605.64
2018-09-25T06:37:54.139Z,102607.09
2018-09-25T06:40:27.671Z,102615.31
2018-09-25T06:43:01.311Z,102619.59
2018-09-25T06:45:35.018Z,102625.81
2018-09-25T06:48:08.541Z,102630.28
2018-09-25T06:50:42.223Z,102630.52
2018-09-25T06:53:15.954Z,102632.55
2018-09-25T06:55:49.670Z,102629.45
2018-09-25T06:58:23.430Z,102637.16
2018-09-25T07:00:57.177Z,102638.64
2018-09-25T07:03:30.901Z,102636.50
2018-09-25T07:06:04.541Z,102639.32
2018-09-25T07:08:38.279Z,102640.72
2018-09-25T07:11:11.847Z,102641.31
2018-09-25T07:13:45.944Z,102646.61
2018-09-25T07:16:19.936Z,102652.50
2018-09-25T07:18:53.636Z,102664.91
2018-09-25T07:21:27.346Z,102659.98
2018-09-25T07:24:01.011Z,102665.73
2018-09-25T07:26:34.694Z,102661.55
2018-09-25T07:29:08.335Z,102665.58
2018-09-25T07:31:41.923Z,102669.09
2018-09-25T07:34:15.735Z,102666.39
2018-09-25T07:36:49.315Z,102675.81
2018-09-25T07:39:22.995Z,102687.59
2018-09-25T07:41:56.763Z,102693.89
2018-09-25T07:44:30.349Z,102693.89
2018-09-25T07:47:04.085Z,102693.70
2018-09-25T07:49:37.857Z,102695.58
2018-09-25T07:52:11.892Z,102695.59
2018-09-25T07:54:45.631Z,102690.61
2018-09-25T07:57:19.411Z,102691.58
2018-09-25T07:59:53.265Z,102690.30
2018-09-25T08:02:26.855Z,102695.78
2018-09-25T08:05:00.618Z,102704.75
2018-09-25T08:07:34.932Z,102702.86
2018-09-25T08:10:08.630Z,102712.53
2018-09-25T08:12:42.419Z,102707.36
2018-09-25T08:15:16.141Z,102712.38
2018-09-25T08:17:49.885Z,102710.95
2018-09-25T08:20:23.452Z,102719.02
2018-09-25T08:22:57.188Z,102714.34
2018-09-25T08:25:30.923Z,102718.44
2018-09-25T08:28:04.598Z,102723.34
2018-09-25T08:30:38.309Z,102721.63
2018-09-25T08:33:12.012Z,102720.96
2018-09-25T08:35:45.502Z,102720.77
2018-09-25T08:38:19.678Z,102732.11
2018-09-25T08:40:53.581Z,102729.74
2018-09-25T08:43:27.294Z,102727.68
2018-09-25T08:46:01.142Z,102725.70
2018-09-25T08:48:34.969Z,102724.34
2018-09-25T08:51:08.558Z,102735.37
2018-09-25T08:53:42.366Z,102742.19
2018-09-25T08:56:15.893Z,102746.89
2018-09-25T08:58:49.639Z,102742.23
2018-09-25T09:01:23.366Z,102743.38
2018-09-25T09:03:57.092Z,102745.00
2018-09-25T09:06:30.858Z,102743.58
2018-09-25T09:09:04.536Z,102746.11
2018-09-25T09:11:38.308Z,102744.33
2018-09-25T09:14:12.464Z,102755.91
2018-09-25T09:16:46.094Z,102755.02
2018-09-25T09:19:19.815Z,102753.58
2018-09-25T09:21:53.491Z,102757.55
2018-09-25T09:24:27.199Z,102758.90
2018-09-25T09:27:00.946Z,102761.27
2018-09-25T09:29:34.792Z,102760.36
2018-09-25T09:32:08.347Z,102760.02
2018-09-25T09:34:42.027Z,102757.66
2018-09-25T09:37:15.769Z,102761.27
2018-09-25T09:39:49.424Z,102759.38
2018-09-25T09:42:23.271Z,102759.46
2018-09-25T09:44:57.095Z,102755.64
2018-09-25T09:47:30.867Z,102757.97
2018-09-25T09:50:04.696Z,102759.28
2018-09-25T09:52:38.458Z,102767.81
2018-09-25T09:55:12.135Z,102767.34
2018-09-25T09:57:45.710Z,102764.77
2018-09-25T10:00:19.945Z,102766.61
2018-09-25T10:02:53.628Z,102769.23
2018-09-25T10:05:27.428Z,102770.36
2018-09-25T10:08:01.088Z,102764.08
2018-09-25T10:10:34.840Z,102763.83
2018-09-25T10:13:08.503Z,102758.88
2018-09-25T10:15:42.257Z,102755.05
2018-09-25T10:18:15.806Z,102760.54
2018-09-25T10:20:49.794Z,102763.53
2018-09-25T10:23:23.619Z,102758.81
2018-09-25T10:25:57.195Z,102758.22
2018-09-25T10:28:31.118Z,102758.91
2018-09-25T10:31:04.783Z,102756.39
2018-09-25T10:33:38.517Z,102763.60
2018-09-25T10:36:12.246Z,102761.81
2018-09-25T10:38:46.046Z,102754.63
2018-09-25T10:41:19.858Z,102766.23
2018-09-25T10:43:53.527Z,102763.26
2018-09-25T10:46:27.270Z,102762.34
2018-09-25T10:49:00.972Z,102768.69
2018-09-25T10:51:34.638Z,102757.42
2018-09-25T10:54:08.394Z,102771.85
2018-09-25T10:56:42.174Z,102769.08
2018-09-25T10:59:16.105Z,102765.78
2018-09-25T11:01:49.745Z,102765.16
2018-09-25T11:04:23.491Z,102764.15
2018-09-25T11:06:57.314Z,102764.20
2018-09-25T11:09:30.860Z,102767.28
2018-09-25T11:12:04.482Z,102765.49
2018-09-25T11:14:38.197Z,102769.94
2018-09-25T11:17:11.967Z,102776.41
2018-09-25T11:19:45.712Z,102770.38
2018-09-25T11:22:19.545Z,102763.30
2018-09-25T11:24:53.263Z,102770.98
2018-09-25T11:27:26.941Z,102771.91
2018-09-25T11:30:00.547Z,102777.36
2018-09-25T11:32:34.233Z,102782.13
2018-09-25T11:35:07.876Z,102783.65
2018-09-25T11:37:41.639Z,102779.84
2018-09-25T11:40:15.223Z,102780.36
2018-09-25T11:42:48.938Z,102773.17
2018-09-25T11:45:22.771Z,102768.19
2018-09-25T11:47:56.535Z,102766.91
2018-09-25T11:50:30.154Z,102762.14
2018-09-25T11:53:03.914Z,102750.62
2018-09-25T11:55:38.158Z,102748.98
2018-09-25T11:58:11.826Z,102754.63
2018-09-25T12:00:45.551Z,102754.16
2018-09-25T12:03:19.338Z,102745.21
2018-09-25T12:05:53.017Z,102751.16
2018-09-25T12:08:26.819Z,102754.95
2018-09-25T12:11:00.329Z,102754.91
2018-09-25T12:13:34.050Z,102754.50
2018-09-25T12:16:07.810Z,102745.31
2018-09-25T12:18:41.358Z,102742.72
2018-09-25T12:21:15.050Z,102755.68
2018-09-25T12:23:48.740Z,102751.48
2018-09-25T12:26:22.301Z,102755.97
2018-09-25T12:28:55.844Z,102757.06
2018-09-25T12:31:29.656Z,102752.19
2018-09-25T12:34:03.303Z,102747.81
2018-09-25T12:36:37.310Z,102738.82
2018-09-25T12:39:13.031Z,102746.95
2018-09-25T12:41:46.746Z,102747.89
2018-09-25T12:44:20.464Z,102747.92
2018-09-25T12:46:54.044Z,102740.59
2018-09-25T12:49:27.743Z,102740.70
2018-09-25T12:52:01.576Z,102734.36
2018-09-25T12:54:35.236Z,102736.59
2018-09-25T12:57:08.882Z,102735.71
2018-09-25T12:59:42.675Z,102732.20
2018-09-25T13:02:16.402Z,102726.19
2018-09-25T13:04:50.061Z,102722.40
2018-09-25T13:07:23.778Z,102722.02
2018-09-25T13:09:57.523Z,102720.60
2018-09-25T13:12:31.489Z,102714.09
2018-09-25T13:15:05.295Z,102719.28
2018-09-25T13:17:39.051Z,102721.09
2018-09-25T13:20:12.613Z,102717.78
2018-09-25T13:22:46.115Z,102723.47
2018-09-25T13:25:19.799Z,102726.54
2018-09-25T13:27:53.448Z,102721.35
2018-09-25T13:30:27.051Z,102717.59
2018-09-25T13:33:00.900Z,102706.51
2018-09-25T13:35:34.735Z,102682.48
2018-09-25T13:38:08.550Z,102680.33
2018-09-25T13:40:43.358Z,102676.41
2018-09-25T13:43:17.096Z,102671.25
2018-09-25T13:45:52.646Z,102686.37
2018-09-25T13:48:26.326Z,102682.09
2018-09-25T13:51:00.041Z,102679.48
2018-09-25T13:53:33.742Z,102686.67
2018-09-25T13:56:08.027Z,102685.00
2018-09-25T13:58:41.834Z,102688.52
2018-09-25T14:01:15.549Z,102682.09
2018-09-25T14:03:49.237Z,102671.35
2018-09-25T14:06:22.947Z,102669.64
2018-09-25T14:08:56.747Z,102675.62
2018-09-25T14:11:30.345Z,102666.59
2018-09-25T14:14:04.046Z,102662.25
2018-09-25T14:16:37.875Z,102652.41
2018-09-25T14:19:11.537Z,102662.72
2018-09-25T14:21:45.278Z,102659.73
2018-09-25T14:24:18.984Z,102660.61
2018-09-25T14:26:52.547Z,102663.17
2018-09-25T14:29:25.991Z,102659.73
2018-09-25T14:31:59.684Z,102660.58
2018-09-25T14:34:33.432Z,102660.59
2018-09-25T14:37:07.221Z,102657.16
2018-09-25T14:39:40.819Z,102660.14
2018-09-25T14:42:14.708Z,102651.56
2018-09-25T14:44:48.331Z,102642.55
2018-09-25T14:47:23.058Z,102643.84
2018-09-25T14:49:56.696Z,102635.24
2018-09-25T14:52:30.422Z,102624.05
2018-09-25T14:55:04.454Z,102636.53
2018-09-25T14:57:38.375Z,102644.26
2018-09-25T15:00:12.113Z,102645.54
2018-09-25T15:02:45.986Z,102649.39
2018-09-25T15:05:19.701Z,102645.48
2018-09-25T15:07:53.543Z,102644.19
2018-09-25T15:10:27.409Z,102646.31
2018-09-25T15:13:01.209Z,102639.81
2018-09-25T15:15:35.022Z,102634.25
2018-09-25T15:18:08.963Z,102635.52
2018-09-25T15:20:42.665Z,102633.36
2018-09-25T15:23:16.445Z,102635.92
2018-09-25T15:25:50.086Z,102631.59
2018-09-25T15:28:23.883Z,102634.20
2018-09-25T15:30:57.545Z,102625.95
2018-09-25T15:33:31.330Z,102626.44
2018-09-25T15:36:05.080Z,102629.47
2018-09-25T15:38:38.748Z,102632.05
2018-09-25T15:41:12.767Z,102636.75
2018-09-25T15:43:46.967Z,102641.90
2018-09-25T15:46:21.306Z,102638.91
2018-09-25T15:48:55.410Z,102634.63
2018-09-25T15:51:29.334Z,102643.63
2018-09-25T15:54:03.378Z,102647.08
2018-09-25T15:56:37.202Z,102648.78
2018-09-25T15:59:11.686Z,102642.38
2018-09-25T16:01:45.782Z,102647.91
2018-09-25T16:04:19.529Z,102646.20
2018-09-25T16:06:53.244Z,102647.85
2018-09-25T16:09:27.914Z,102647.80
2018-09-25T16:12:01.537Z,102651.64
2018-09-25T16:14:35.327Z,102654.17
2018-09-25T16:17:09.848Z,102667.45
2018-09-25T16:19:43.607Z,102665.25
2018-09-25T16:22:17.551Z,102664.31
2018-09-25T16:24:51.631Z,102675.91
2018-09-25T16:27:25.364Z,102673.33
2018-09-25T16:29:59.455Z,102673.74
2018-09-25T16:32:33.984Z,102681.77
2018-09-25T16:35:08.141Z,102681.72
2018-09-25T16:37:42.396Z,102681.72
2018-09-25T16:40:16.357Z,102674.81
2018-09-25T16:42:50.632Z,102682.47
2018-09-25T16:45:24.932Z,102669.59
2018-09-25T16:47:58.907Z,102671.22
2018-09-25T16:50:32.769Z,102668.59
2018-09-25T16:53:07.139Z,102670.73
2018-09-25T16:55:41.064Z,102668.56
2018-09-25T16:58:15.405Z,102656.47
2018-09-25T17:00:50.362Z,102660.27
2018-09-25T17:03:24.399Z,102663.20
2018-09-25T17:05:58.285Z,102665.25
2018-09-25T17:08:32.237Z,102664.36
2018-09-25T17:11:06.158Z,102661.67
2018-09-25T17:13:40.338Z,102667.91
2018-09-25T17:16:14.568Z,102664.82
2018-09-25T17:18:48.694Z,102667.36
2018-09-25T17:21:22.747Z,102667.66
2018-09-25T17:23:56.547Z,102675.16
2018-09-25T17:26:30.199Z,102679.47
2018-09-25T17:29:04.345Z,102680.58
2018-09-25T17:31:38.478Z,102689.40
2018-09-25T17:34:12.881Z,102694.47
2018-09-25T17:36:47.404Z,102692.04
2018-09-25T17:39:21.601Z,102704.53
2018-09-25T17:41:55.958Z,102699.27
2018-09-25T17:44:29.705Z,102693.22
2018-09-25T17:47:03.549Z,102698.25
2018-09-25T17:49:37.461Z,102690.09
2018-09-25T17:52:11.152Z,102692.55
2018-09-25T17:54:44.987Z,102690.38
2018-09-25T17:57:18.878Z,102695.44
2018-09-25T17:59:52.702Z,102691.50
2018-09-25T18:02:26.316Z,102689.32
2018-09-25T18:05:00.168Z,102685.09
2018-09-25T18:07:34.223Z,102688.90
2018-09-25T18:10:07.982Z,102689.25
2018-09-25T18:12:52.852Z,102697.75
2018-09-25T18:15:26.670Z,102683.50
2018-09-25T18:18:07.548Z,102676.63
2018-09-25T18:20:41.533Z,102667.20
2018-09-25T18:23:15.532Z,102661.53
2018-09-25T18:25:50.304Z,102661.02
2018-09-25T18:28:24.117Z,102660.09
2018-09-25T18:30:57.814Z,102655.27
2018-09-25T18:33:31.730Z,102654.38
2018-09-25T18:36:05.557Z,102650.50
2018-09-25T18:38:39.450Z,102649.64
2018-09-25T18:41:13.258Z,102650.80
2018-09-25T18:43:47.153Z,102653.73
2018-09-25T18:46:20.872Z,102653.63
2018-09-25T18:48:54.662Z,102659.20
2018-09-25T18:51:28.665Z,102653.61
2018-09-25T18:54:02.495Z,102654.42
2018-09-25T18:56:36.133Z,102662.02
2018-09-25T18:59:09.987Z,102656.90
2018-09-25T19:01:43.891Z,102650.80
2018-09-25T19:04:17.674Z,102660.53
2018-09-25T19:06:51.387Z,102660.87
2018-09-25T19:09:25.208Z,102663.89
2018-09-25T19:11:59.024Z,102662.91
2018-09-25T19:14:33.032Z,102652.72
2018-09-25T19:17:06.704Z,102657.70
2018-09-25T19:19:40.425Z,102664.43
2018-09-25T19:22:14.218Z,102670.78
2018-09-25T19:24:47.867Z,102668.13
2018-09-25T19:27:21.775Z,102672.02
2018-09-25T19:29:55.600Z,102675.34
2018-09-25T19:32:29.458Z,102669.12
2018-09-25T19:35:03.675Z,102675.61
2018-09-25T19:37:37.546Z,102677.75
2018-09-25T19:40:11.572Z,102679.22
2018-09-25T19:42:45.185Z,102672.83
2018-09-25T19:45:18.919Z,102673.58
2018-09-25T19:47:52.709Z,102674.77
2018-09-25T19:50:26.644Z,102680.15
2018-09-25T19:53:00.423Z,102672.05
2018-09-25T19:55:34.146Z,102673.23
2018-09-25T19:58:07.937Z,102675.35
2018-09-25T20:00:42.077Z,102674.94
2018-09-25T20:03:16.679Z,102681.50
2018-09-25T20:05:50.482Z,102686.18
2018-09-25T20:08:24.183Z,102691.20
2018-09-25T20:10:57.911Z,102688.21
2018-09-25T20:13:31.535Z,102680.55
2018-09-25T20:16:05.186Z,102680.97
2018-09-25T20:18:38.931Z,102688.05
2018-09-25T20:21:12.840Z,102681.73
2018-09-25T20:23:46.683Z,102680.81
2018-09-25T20:26:20.330Z,102680.33
2018-09-25T20:28:53.954Z,102680.23
2018-09-25T20:31:27.720Z,102681.83
2018-09-25T20:34:01.463Z,102688.58
2018-09-25T20:36:35.177Z,102686.89
2018-09-25T20:39:08.948Z,102689.77
2018-09-25T20:41:42.573Z,102685.93
2018-09-25T20:44:16.452Z,102687.52
2018-09-25T20:46:50.231Z,102693.06
2018-09-25T20:49:45.907Z,102692.47
2018-09-25T20:52:33.964Z,102686.50
2018-09-25T20:55:07.634Z,102682.59
2018-09-25T20:57:41.415Z,102671.64
2018-09-25T21:00:16.386Z,102669.46
2018-09-25T21:02:50.125Z,102668.25
2018-09-25T21:05:27.887Z,102667.36
2018-09-25T21:08:01.735Z,102657.02
2018-09-25T21:10:35.889Z,102654.07
2018-09-25T21:13:10.350Z,102656.27
2018-09-25T21:15:45.537Z,102658.55
2018-09-25T21:18:19.603Z,102646.13
2018-09-25T21:20:53.341Z,102644.33
2018-09-25T21:23:27.410Z,102650.16
2018-09-25T21:26:01.153Z,102658.99
2018-09-25T21:28:35.286Z,102658.56
2018-09-25T21:31:09.221Z,102643.32
2018-09-25T21:33:42.813Z,102635.73
2018-09-25T21:36:16.632Z,102629.72
2018-09-25T21:38:50.558Z,102629.16
2018-09-25T21:41:24.166Z,102635.12
2018-09-25T21:43:58.309Z,102635.91
2018-09-25T21:46:32.053Z,102641.94
2018-09-25T21:49:11.524Z,102639.27
2018-09-25T21:51:45.590Z,102629.36
2018-09-25T21:54:19.472Z,102624.54
2018-09-25T21:56:53.373Z,102621.19
2018-09-25T21:59:26.931Z,102622.30
2018-09-25T22:02:01.208Z,102625.70
2018-09-25T22:04:34.903Z,102619.75
2018-09-25T22:07:09.171Z,102621.86
2018-09-25T22:09:42.835Z,102611.19
2018-09-25T22:12:16.528Z,102613.24
2018-09-25T22:14:51.617Z,102613.14
2018-09-25T22:17:25.316Z,102604.62
2018-09-25T22:20:01.109Z,102595.70
2018-09-25T22:22:34.834Z,102599.45
2018-09-25T22:25:08.786Z,102592.66
2018-09-25T22:27:42.525Z,102590.53
2018-09-25T22:30:16.326Z,102583.91
2018-09-25T22:32:50.128Z,102575.85
2018-09-25T22:35:23.665Z,102573.16
2018-09-25T22:37:57.485Z,102580.52
2018-09-25T22:40:31.205Z,102580.88
2018-09-25T22:43:05.327Z,102582.81
2018-09-25T22:45:39.876Z,102592.30
2018-09-25T22:48:13.589Z,102584.52
2018-09-25T22:50:47.418Z,102587.36
2018-09-25T22:53:21.158Z,102587.44
2018-09-25T22:55:54.730Z,102587.72
2018-09-25T22:58:29.188Z,102595.01
2018-09-25T23:01:02.979Z,102592.46
2018-09-25T23:03:36.742Z,102599.62
2018-09-25T23:06:10.414Z,102600.42
2018-09-25T23:08:44.181Z,102597.06
2018-09-25T23:11:17.983Z,102601.33
2018-09-25T23:13:51.610Z,102604.30
2018-09-25T23:16:25.365Z,102605.57
2018-09-25T23:18:59.161Z,102594.09
2018-09-25T23:21:33.013Z,102596.10
2018-09-25T23:24:06.851Z,102587.91
2018-09-25T23:26:40.484Z,102585.72
2018-09-25T23:29:14.461Z,102573.88
2018-09-25T23:31:48.183Z,102564.12
2018-09-25T23:34:21.866Z,102571.63
2018-09-25T23:36:55.858Z,102568.97
2018-09-25T23:39:30.274Z,102558.76
2018-09-25T23:44:41.015Z,102549.32
2018-09-25T23:48:14.250Z,102550.95
2018-09-25T23:50:54.794Z,102548.35
2018-09-25T23:53:27.553Z,102554.72
2018-09-25T23:56:00.257Z,102548.58
2018-09-25T23:58:34.262Z,102546.47
